Terminal Aerodrome Forecast
Issued by NWS Billings, MT

Home | Current Version | Previous Version | Text Only | Print | Product List | Glossary On
Versions: 1 2 3 4 5 6 7 8 9 10 11 12 13 14 15 16 17 18 19 20 21 22 23 24 25
000
FTUS45 KBYZ 031124
TAFSHR
TAF
KSHR 031124Z 0312/0412 31015G22KT 1SM -SN BLSN SCT012 OVC030
      TEMPO 0312/0316 3SM -SN BLSN FEW012 SCT030 OVC050
     FM031600 32015KT 5SM -SN BLSN FEW012 SCT030 OVC050
     FM032000 32015KT P6SM SCT030 SCT080
     FM040200 VRB05KT P6SM FEW040=

USA.gov is the U.S. government's official web portal to all federal, state and local government web resources and services.